Latest Weather Observations for Geelong Racecourse

IDV60801

Issued at 7:35 pm EDT Wednesday 4 March 2015 (issued every 30 minutes, with the page automatically refreshed every 10 minutes)

About weather observations | Map of weather stations | Latest weather observations for VIC | Other Formats
Station Details ID: 087184 Name: GEELONG RACECOURSE Lat: -38.17 Lon: 144.38 Height: 12.9 m
Data from the previous 72 hours. | See also: Recent months at Geelong Racecourse
Date/Time
EDT
Temp
°C
App
Temp
°C
Dew
Point
Rel
Hum
%
Delta-T
°C
Wind Press
QNH
hPa
Press
MSL
hPa
Rain
since 9 am
mm
Dir
 
Spd
km/h
Gust
km/h
Spd
kts
Gust
kts
04/07:30pm 21.0 17.9 10.2 50 5.9 WNW 17 24 9 13 1009.2 1009.2 0.0
04/07:00pm 21.7 18.4 9.6 46 6.5 WNW 17 28 9 15 1009.5 1009.5 0.0
04/06:30pm 21.9 18.0 9.4 45 6.7 W 20 33 11 18 1009.7 1009.7 0.0
04/06:00pm 22.9 17.8 9.3 42 7.3 WNW 26 43 14 23 1009.9 1009.9 0.0
04/05:30pm 23.0 18.1 9.8 43 7.2 W 26 39 14 21 1009.9 1009.9 0.0
04/05:00pm 23.1 18.2 9.8 43 7.2 W 26 41 14 22 1010.3 1010.3 0.0
04/04:30pm 22.9 18.3 9.7 43 7.2 W 24 35 13 19 1010.7 1010.7 0.0
04/04:00pm 22.2 18.3 9.4 44 6.9 WNW 20 33 11 18 1011.0 1011.0 0.0
04/03:30pm 23.2 19.8 10.6 45 7.0 W 19 30 10 16 1011.4 1011.4 0.0
04/03:00pm 21.9 18.3 10.4 48 6.3 WNW 20 32 11 17 1011.9 1011.9 0.0
04/02:30pm 22.3 17.9 10.5 47 6.5 W 24 35 13 19 1012.3 1012.3 0.0
04/02:00pm 21.9 17.8 10.1 47 6.4 WNW 22 35 12 19 1012.5 1012.5 0.0
04/01:30pm 20.8 17.6 10.0 50 5.8 W 17 28 9 15 1013.0 1013.0 0.0
04/01:00pm 21.1 18.1 10.6 51 5.7 WNW 17 30 9 16 1013.5 1013.5 0.0
04/12:30pm 19.4 16.2 9.9 54 5.1 WNW 17 28 9 15 1013.9 1013.9 0.0
04/12:00pm 19.3 16.5 10.0 55 5.0 NW 15 28 8 15 1014.5 1014.5 0.0
04/11:00am 17.2 15.6 10.3 64 3.7 W 9 15 5 8 1015.5 1015.5 0.0
04/10:30am 16.9 15.3 10.1 64 3.6 WNW 9 15 5 8 1015.3 1015.3 0.0
04/10:00am 16.5 14.6 10.6 68 3.1 WNW 11 17 6 9 1015.3 1015.3 0.0
04/09:30am 15.0 13.8 11.6 80 1.8 WNW 9 15 5 8 1015.4 1015.4 0.0
04/09:00am 13.9 12.0 10.5 80 1.8 WNW 11 22 6 12 1015.6 1015.6 0.0
04/08:30am 13.6 11.3 10.6 82 1.6 WNW 13 17 7 9 1015.3 1015.3 0.0
04/08:00am 13.0 12.5 10.9 87 1.1 WNW 4 7 2 4 1015.1 1015.1 0.0
04/07:30am 12.6 11.5 10.5 87 1.1 NW 7 9 4 5 1015.0 1015.0 0.0
04/07:00am 12.4 11.1 10.1 86 1.2 NW 7 13 4 7 1014.7 1014.7 0.0
04/06:30am 12.9 11.6 10.1 83 1.4 NW 7 11 4 6 1014.5 1014.5 0.0
04/06:00am 13.3 11.7 10.1 81 1.7 NW 9 13 5 7 1014.5 1014.5 0.0
04/05:30am 14.4 12.5 10.6 78 2.0 NW 11 15 6 8 1014.7 1014.7 0.0
04/05:00am 14.0 12.9 10.8 81 1.7 NW 7 11 4 6 1014.7 1014.7 0.0
04/04:30am 13.7 12.6 9.9 78 2.0 WNW 6 7 3 4 1014.9 1014.9 0.0
04/04:00am 14.3 13.2 9.9 75 2.3 WNW 6 7 3 4 1015.1 1015.1 0.0
04/03:30am 14.9 13.7 10.3 74 2.4 WNW 7 9 4 5 1015.2 1015.2 0.0
04/03:00am 15.4 14.2 10.2 71 2.7 WNW 7 11 4 6 1015.3 1015.3 0.0
04/02:30am 15.5 14.2 9.8 69 3.0 W 7 11 4 6 1015.6 1015.6 0.0
04/02:00am 15.3 14.8 10.7 74 2.4 W 4 6 2 3 1015.9 1015.9 0.0
04/01:30am 15.2 15.5 12.3 83 1.6 W 2 6 1 3 1016.1 1016.1 0.0
04/01:00am 14.9 14.9 13.6 92 0.7 SW 6 7 3 4 1016.3 1016.3 0.0
04/12:30am 14.1 13.8 12.8 92 0.7 WSW 6 7 3 4 1016.4 1016.4 0.0
04/12:00am 13.9 13.4 12.6 92 0.7 SW 7 9 4 5 1016.6 1016.6 0.0
 
Date/Time
EDT
Temp
°C
App
Temp
°C
Dew
Point
Rel
Hum
%
Delta-T
°C
Wind Press
QNH
hPa
Press
MSL
hPa
Rain
since 9 am
mm
Dir
 
Spd
km/h
Gust
km/h
Spd
kts
Gust
kts
03/11:30pm 14.1 13.8 12.7 91 0.8 SW 6 7 3 4 1016.8 1016.8 0.0
03/11:00pm 14.3 13.8 12.2 87 1.1 SSW 6 9 3 5 1017.1 1017.1 0.0
03/10:30pm 14.9 14.5 12.4 85 1.4 SSW 6 9 3 5 1017.1 1017.1 0.0
03/10:00pm 15.3 14.3 12.2 82 1.7 SSW 9 11 5 6 1017.1 1017.1 0.0
03/09:30pm 15.3 14.4 11.5 78 2.0 S 7 9 4 5 1016.8 1016.8 0.0
03/09:00pm 16.0 15.2 11.0 72 2.7 S 6 9 3 5 1016.6 1016.6 0.0
03/08:30pm 16.5 15.6 11.2 71 2.9 S 7 11 4 6 1016.3 1016.3 0.0
03/08:00pm 17.2 15.5 11.2 68 3.2 S 11 17 6 9 1016.0 1016.0 0.0
03/07:30pm 18.1 16.0 11.0 63 3.8 S 13 19 7 10 1015.9 1015.9 0.0
03/07:00pm 18.7 15.8 11.0 61 4.2 S 17 22 9 12 1015.9 1015.9 0.0
03/06:30pm 19.3 17.0 11.6 61 4.2 SSE 15 24 8 13 1015.7 1015.7 0.0
03/06:00pm 19.6 16.8 11.4 59 4.5 SSE 17 22 9 12 1015.6 1015.6 0.0
03/05:30pm 20.4 17.0 10.5 53 5.4 SSE 19 26 10 14 1015.5 1015.5 0.0
03/05:00pm 20.7 17.4 10.8 53 5.4 S 19 28 10 15 1015.6 1015.6 0.0
03/04:30pm 20.9 17.3 9.8 49 6.0 SSE 19 26 10 14 1015.6 1015.6 0.0
03/04:00pm 21.6 18.7 9.5 46 6.5 S 15 24 8 13 1015.8 1015.8 0.0
03/03:30pm 21.3 18.1 9.9 48 6.2 S 17 24 9 13 1016.0 1016.0 0.0
03/03:00pm 22.5 20.2 10.3 46 6.7 SSE 13 22 7 12 1016.2 1016.2 0.0
03/02:30pm 21.2 19.4 10.7 51 5.7 SSE 11 17 6 9 1016.6 1016.6 0.0
03/02:00pm 20.9 19.1 11.0 53 5.4 SSE 11 20 6 11 1016.6 1016.6 0.0
03/01:30pm 22.1 21.3 10.9 49 6.2 ESE 6 11 3 6 1016.9 1016.9 0.0
03/01:00pm 20.4 19.0 10.8 54 5.2 ESE 9 19 5 10 1017.1 1017.1 0.0
03/12:30pm 20.8 19.6 11.7 56 5.1 S 9 15 5 8 1017.6 1017.6 0.0
03/12:00pm 20.6 19.5 10.7 53 5.4 S 7 15 4 8 1017.7 1017.7 0.0
03/11:30am 20.2 18.9 11.1 56 5.0 S 9 19 5 10 1018.0 1018.0 0.0
03/11:00am 18.9 16.3 10.7 59 4.4 S 15 22 8 12 1017.9 1017.9 0.0
03/10:30am 18.2 15.8 10.1 59 4.3 S 13 19 7 10 1017.7 1017.7 0.0
03/10:00am 19.1 17.9 11.7 62 4.1 S 9 19 5 10 1017.7 1017.7 0.0
03/09:30am 18.2 15.9 11.7 66 3.6 S 15 22 8 12 1017.6 1017.6 0.0
03/09:00am 17.4 15.8 12.7 74 2.6 SW 13 17 7 9 1017.6 1017.6 0.0
03/08:30am 15.9 15.3 13.4 85 1.4 SW 9 13 5 7 1017.3 1017.3 -
03/08:00am 14.1 13.3 12.8 92 0.7 SW 9 11 5 6 1017.1 1017.1 -
03/07:30am 13.9 13.0 12.5 91 0.8 SW 9 11 5 6 1016.7 1016.7 -
03/07:00am 14.3 13.9 13.0 92 0.7 WSW 7 9 4 5 1016.3 1016.3 -
03/06:30am 13.7 13.3 12.4 92 0.7 WSW 6 7 3 4 1015.9 1015.9 -
03/06:00am 13.7 13.3 12.3 91 0.8 WSW 6 7 3 4 1015.8 1015.8 -
03/05:30am 14.3 14.1 13.0 92 0.7 WNW 6 6 3 3 1015.5 1015.5 -
03/05:00am 14.3 14.5 13.0 92 0.7 W 4 6 2 3 1015.4 1015.4 -
03/04:30am 14.6 14.3 13.3 92 0.7 WSW 7 9 4 5 1015.5 1015.5 -
03/04:00am 15.0 14.9 13.4 90 0.9 WSW 6 6 3 3 1015.5 1015.5 -
03/03:30am 15.2 15.2 13.6 90 0.9 WSW 6 9 3 5 1015.6 1015.6 -
03/03:00am 15.6 15.1 13.8 89 1.0 SW 9 13 5 7 1015.5 1015.5 0.0
03/02:30am 15.8 15.2 13.5 86 1.3 SW 9 13 5 7 1015.6 1015.6 -
03/02:00am 16.0 16.5 12.7 81 1.8 W 2 4 1 2 1016.0 1016.0 -
03/01:30am 16.3 16.1 13.0 81 1.8 W 6 7 3 4 1016.5 1016.5 -
03/01:00am 16.3 16.1 13.0 81 1.8 WSW 6 9 3 5 1016.1 1016.1 -
03/12:30am 16.3 16.5 13.0 81 1.8 WNW 4 6 2 3 1016.1 1016.1 -
03/12:00am 16.4 16.2 12.9 80 1.9 SSW 6 7 3 4 1015.5 1015.5 -
 
Date/Time
EDT
Temp
°C
App
Temp
°C
Dew
Point
Rel
Hum
%
Delta-T
°C
Wind Press
QNH
hPa
Press
MSL
hPa
Rain
since 9 am
mm
Dir
 
Spd
km/h
Gust
km/h
Spd
kts
Gust
kts
02/11:30pm 16.5 16.2 12.8 79 2.1 SSW 6 7 3 4 1015.7 1015.7 -
02/11:00pm 16.4 17.0 13.1 81 1.8 S 2 7 1 4 1016.0 1016.0 -
02/10:30pm 16.9 17.0 12.6 76 2.4 S 4 6 2 3 1015.9 1015.9 -
02/10:00pm 16.9 16.6 13.2 79 2.1 SSW 7 11 4 6 1015.6 1015.6 -
02/09:30pm 17.2 16.8 13.1 77 2.3 SSW 7 9 4 5 1015.8 1015.8 -
02/09:00pm 17.4 16.6 12.9 75 2.5 S 9 13 5 7 1015.5 1015.5 0.0
02/08:30pm 17.8 17.3 12.7 72 2.8 SSE 7 11 4 6 1015.1 1015.1 -
02/08:00pm 18.1 16.4 12.3 69 3.2 S 13 17 7 9 1014.9 1014.9 -
02/07:30pm 18.6 16.8 12.1 66 3.6 S 13 17 7 9 1014.6 1014.6 -
02/07:00pm 19.7 18.0 11.2 58 4.7 SE 11 13 6 7 1014.1 1014.1 -
02/06:30pm 20.4 19.1 11.3 56 5.0 SE 9 15 5 8 1014.0 1014.0 -
02/06:00pm 20.4 18.7 11.3 56 5.0 SE 11 15 6 8 1013.7 1013.7 -
02/05:30pm 20.6 18.5 11.0 54 5.3 SE 13 19 7 10 1013.6 1013.6 -
02/05:00pm 21.6 20.7 9.2 45 6.6 NE 4 7 2 4 1013.8 1013.8 -
02/04:30pm 21.2 19.8 8.8 45 6.6 NE 6 9 3 5 1013.9 1013.9 -
02/04:00pm 21.0 19.4 8.6 45 6.5 NNE 7 11 4 6 1014.6 1014.6 -
02/03:30pm 21.1 20.0 8.4 44 6.7 NE 4 7 2 4 1014.5 1014.5 -
02/03:00pm 20.2 18.7 8.5 47 6.1 E 6 9 3 5 1014.8 1014.8 0.0
02/02:30pm 20.6 19.7 9.2 48 6.0 ESE 4 7 2 4 1015.4 1015.4 0.0
02/02:00pm 19.8 18.9 9.1 50 5.6 SSE 4 7 2 4 1015.9 1015.9 0.0
02/01:30pm 19.7 18.5 9.6 52 5.4 ENE 6 9 3 5 1016.3 1016.3 0.0
02/01:00pm 19.0 17.2 8.1 49 5.6 NE 7 15 4 8 1016.7 1016.7 0.0
02/12:30pm 18.5 16.6 9.0 54 5.0 ENE 9 15 5 8 1017.3 1017.3 0.0
02/12:00pm 18.0 16.0 10.1 60 4.2 NE 11 17 6 9 1017.7 1017.7 0.0
02/11:30am 18.2 15.8 10.1 59 4.3 NE 13 20 7 11 1018.0 1018.0 0.0
02/11:00am 17.5 15.6 10.4 63 3.8 NNE 11 17 6 9 1018.4 1018.4 0.0
02/10:30am 17.1 15.4 11.2 68 3.2 NNE 11 15 6 8 1018.4 1018.4 0.0
02/10:00am 16.3 15.3 11.0 71 2.8 N 7 13 4 7 1018.5 1018.5 0.0
02/09:30am 15.3 14.5 11.1 76 2.2 N 6 7 3 4 1018.6 1018.6 0.0
02/09:00am 13.7 14.5 12.4 92 0.7 CALM 0 4 0 2 1018.5 1018.5 0.0
02/08:30am 10.9 10.5 9.8 93 0.6 WNW 2 4 1 2 1018.5 1018.5 0.0
02/08:00am 9.5 9.1 8.4 93 0.5 CALM 0 2 0 1 1018.2 1018.2 0.0
02/07:30am 8.3 7.3 7.2 93 0.5 WNW 2 4 1 2 1018.3 1018.3 0.0
02/07:00am 8.2 6.8 7.1 93 0.5 WNW 4 4 2 2 1018.1 1018.1 0.0
02/06:30am 8.3 7.3 7.2 93 0.5 WNW 2 4 1 2 1018.0 1018.0 0.0
02/06:00am 8.3 6.9 7.2 93 0.5 WNW 4 4 2 2 1017.9 1017.9 0.0
02/05:30am 9.0 7.4 7.9 93 0.5 NW 6 7 3 4 1017.9 1017.9 0.0
02/05:00am 9.2 7.6 8.1 93 0.5 NW 6 7 3 4 1018.1 1018.1 0.0
02/04:30am 9.6 8.1 8.5 93 0.5 NNW 6 7 3 4 1018.0 1018.0 0.0
02/04:00am 9.6 9.2 8.4 92 0.6 CALM 0 0 0 0 1018.2 1018.2 0.0
02/03:30am 9.9 9.6 8.7 92 0.6 CALM 0 2 0 1 1018.0 1018.0 0.0
02/03:00am 10.4 9.4 8.8 90 0.8 WSW 4 6 2 3 1018.4 1018.4 0.0
02/02:30am 10.7 9.7 8.8 88 0.9 WNW 4 6 2 3 1018.5 1018.5 0.0
02/02:00am 11.3 9.4 9.0 86 1.1 WNW 9 11 5 6 1019.0 1019.0 0.0
02/01:30am 11.3 9.4 9.0 86 1.1 WNW 9 13 5 7 1019.1 1019.1 0.0
02/01:00am 11.7 10.2 9.3 85 1.2 WNW 7 7 4 4 1018.8 1018.8 0.0
02/12:30am 11.1 9.7 8.7 85 1.2 WNW 6 6 3 3 1018.6 1018.6 0.0
02/12:00am 11.9 10.5 8.7 81 1.6 W 6 6 3 3 1018.4 1018.4 0.0
 
Date/Time
EDT
Temp
°C
App
Temp
°C
Dew
Point
Rel
Hum
%
Delta-T
°C
Wind Press
QNH
hPa
Press
MSL
hPa
Rain
since 9 am
mm
Dir
 
Spd
km/h
Gust
km/h
Spd
kts
Gust
kts
01/11:30pm 11.8 11.1 8.6 81 1.6 WSW 2 4 1 2 1018.7 1018.7 0.0
01/11:00pm 12.0 10.8 8.1 77 1.9 SW 4 6 2 3 1018.9 1018.9 0.0
01/10:30pm 12.8 10.8 8.5 75 2.1 SSW 9 13 5 7 1018.9 1018.9 0.0
01/10:00pm 13.3 11.3 8.6 73 2.3 SSW 9 15 5 8 1018.9 1018.9 0.0
01/09:30pm 13.6 11.6 8.7 72 2.5 SSW 9 13 5 7 1018.6 1018.6 0.0
01/09:00pm 14.0 11.6 8.6 70 2.7 SSW 11 15 6 8 1018.4 1018.4 0.0
01/08:30pm 14.6 11.9 9.0 69 2.9 S 13 17 7 9 1017.9 1017.9 0.0
01/08:00pm 15.5 11.6 9.6 68 3.1 S 20 28 11 15 1017.6 1017.6 0.0

Other Formats:

Comma delimited format used in spreadsheet applications
http://www.bom.gov.au/fwo/IDV60801/IDV60801.94857.axf

JavaScript Object Notation format (JSON) in row-major order
http://www.bom.gov.au/fwo/IDV60801/IDV60801.94857.json